Etusivu
METAR-TAF:

METAR-TAF

Lentoasemat :

Kittilän lentoasema

Kittilä, Suomi

Leveyspiiri: 67-42N, Pituuspiiri: 024-51E, korkeus merenpinnasta: 196 m

Tämänhetkinen sää

Tämä raportti tehtiin 9 minuuttia sitten, kello 17.20 UTC
Tuuli 11 kn etelästä/lounaasta
Lämpötila 15°C
Kosteus 55%
Ilmanpaine 1014 hPa
Näkyvyys 10 km tai enemmän
ei pilviä alle 1500 m:ssä eikä cumulonimbus-pilviä

METAR: EFKT 201720Z AUTO 20011KT CAVOK 15/06 Q1014

Aika: 20:29 (17:29 UTC)

Sääennuste

Tämä raportti tehtiin 15 tuntia ja 5 minuuttia sitten, kello 02.24 UTC
Ennuste voimassa 20. päivästä klo 03 UTC - 20. päivään klo 07 UTC
Tuuli 9 kn lännestä
Näkyvyys 10 km tai enemmän
ei pilviä alle 1500 m:ssä eikä cumulonimbus-pilviä

TAF: EFKT 200224Z 2003/2007 26009KT CAVOK

Säähavainnot ja -ennusteet yli 4000 lentoasemalta (METAR- ja TAF-raportit).

Käytössä olevat sääasemat on merkitty karttaan keltaisilla ja punaisilla pisteillä.

Aseta hiiri pisteen päälle nähdäksesi sääaseman nimen.

Klikkaa sitten nähdäksesi säähavainnot ja -ennusteet.

Kartan vaihtaminen: klikkaa mustalla rastilla varustettuja vihreitä pisteitä, niin voit zoomata sisään; viivalla varustettua vihreää pistettä, niin voit zoomata ulos tai vihreitä nuolia, niin pääset viereisille kartoille.


METAR-TAF: